Time;durP1;ratioP1;P1;durP2;ratioP2;P2;SDS_P1;SDS_P2;PMS_P1;PMS_P2;Temp;Humidity;BMP_temperature;BMP_pressure;BME280_temperature;BME280_humidity;BME280_pressure;Samples;Min_cycle;Max_cycle;Signal;HPM_P1;HPM_P2
2022/03/29 00:01:57;;;;;;;20.23;16.33;;;11.40;63.60;;;14.52;48.74;101627.34;5015959;28;20214;-49
2022/03/29 00:04:26;;;;;;;22.27;17.13;;;11.40;63.80;;;14.53;48.95;101629.00;5015873;28;20278;-50
2022/03/29 00:06:54;;;;;;;21.17;17.10;;;11.40;63.70;;;14.55;48.81;101629.63;5015765;28;20211;-50
2022/03/29 00:09:22;;;;;;;21.33;16.50;;;11.40;63.70;;;14.57;48.80;101629.47;5018282;28;20183;-51
2022/03/29 00:11:51;;;;;;;20.47;16.90;;;11.40;63.80;;;14.57;48.75;101624.97;5015154;28;20191;-49
2022/03/29 00:14:18;;;;;;;24.00;17.73;;;11.40;63.70;;;14.57;48.96;101617.03;4997090;28;20302;-49
2022/03/29 00:16:45;;;;;;;23.20;17.87;;;11.40;63.50;;;14.54;48.91;101617.41;4995242;28;20262;-51
2022/03/29 00:19:13;;;;;;;20.23;16.20;;;11.40;63.40;;;14.53;48.91;101612.25;4995514;28;20215;-50
2022/03/29 00:21:41;;;;;;;18.87;16.00;;;11.40;63.40;;;14.49;49.05;101609.16;4995806;28;20223;-50
2022/03/29 00:24:13;;;;;;;19.50;14.93;;;11.40;63.60;;;14.50;48.92;101608.13;4995661;28;20626;-49
2022/03/29 00:26:41;;;;;;;17.80;14.10;;;11.40;63.70;;;14.50;48.93;101592.25;4995329;28;20677;-49
2022/03/29 00:29:12;;;;;;;15.10;13.07;;;11.40;63.70;;;14.51;48.87;101588.59;5005978;28;20206;-47
2022/03/29 00:31:39;;;;;;;19.13;14.77;;;11.40;63.80;;;14.51;48.74;101588.59;5015593;28;20210;-48
2022/03/29 00:34:06;;;;;;;18.70;14.63;;;11.40;63.70;;;14.49;48.93;101593.25;5014869;28;20566;-48
2022/03/29 00:36:34;;;;;;;17.83;13.20;;;11.40;63.90;;;14.47;48.97;101589.97;5014426;28;20190;-48
2022/03/29 00:39:01;;;;;;;18.03;13.73;;;11.40;63.80;;;14.42;49.06;101600.28;5014848;28;20558;-49
2022/03/29 00:41:28;;;;;;;19.17;13.27;;;11.30;63.70;;;14.37;49.56;101594.69;5015092;28;20198;-48
2022/03/29 00:43:56;;;;;;;16.00;13.97;;;11.30;63.80;;;14.33;49.21;101587.28;5014850;28;20278;-48
2022/03/29 00:46:25;;;;;;;20.23;13.93;;;11.30;63.80;;;14.28;49.23;101582.50;5013045;28;20302;-48
2022/03/29 00:48:53;;;;;;;18.80;15.10;;;11.30;63.80;;;14.26;49.31;101580.00;5014647;28;20270;-47
2022/03/29 00:51:21;;;;;;;19.97;16.80;;;11.30;63.90;;;14.28;49.36;101582.50;5014794;28;20283;-47
2022/03/29 00:53:49;;;;;;;18.13;14.77;;;11.20;64.20;;;14.26;49.37;101580.00;5014665;28;20191;-49
2022/03/29 00:56:19;;;;;;;17.57;14.37;;;11.20;64.30;;;14.26;49.25;101574.69;5014847;28;20548;-50
2022/03/29 00:58:48;;;;;;;19.33;13.73;;;11.10;64.40;;;14.27;49.48;101575.53;5008978;28;20199;-50
2022/03/29 01:01:16;;;;;;;18.83;14.87;;;11.10;64.80;;;14.26;49.57;101568.59;5014205;28;20188;-50
2022/03/29 01:03:45;;;;;;;19.53;15.00;;;11.10;64.80;;;14.26;49.38;101568.59;5014496;28;20188;-51
2022/03/29 01:06:13;;;;;;;21.60;14.10;;;11.10;65.10;;;14.25;49.42;101566.94;5014079;28;20266;-49
2022/03/29 01:08:40;;;;;;;19.17;14.60;;;11.10;64.90;;;14.23;49.43;101553.06;5014390;28;20196;-49
2022/03/29 01:11:12;;;;;;;16.47;13.90;;;11.10;64.80;;;14.24;49.55;101546.75;5014490;28;20195;-48
2022/03/29 01:13:47;;;;;;;19.73;13.70;;;11.10;64.90;;;14.24;49.69;101549.41;5003064;28;20538;-50
2022/03/29 01:19:09;;;;;;;19.70;14.37;;;11.10;64.80;;;14.21;49.30;101544.47;4994553;28;20195;-51
2022/03/29 01:21:39;;;;;;;19.60;15.00;;;11.10;64.40;;;14.20;49.40;101543.66;4995039;28;20214;-49
2022/03/29 01:24:12;;;;;;;20.13;13.87;;;11.10;64.20;;;14.18;49.13;101544.81;4995162;28;20192;-49
2022/03/29 01:26:40;;;;;;;21.73;14.10;;;11.10;64.00;;;14.19;49.13;101546.50;4994261;28;20215;-49
2022/03/29 01:29:08;;;;;;;19.83;14.90;;;11.00;64.00;;;14.19;49.21;101536.69;5003509;28;20302;-48
2022/03/29 01:31:37;;;;;;;17.83;13.63;;;11.10;64.10;;;14.20;49.12;101542.81;5014566;28;20275;-49
2022/03/29 01:34:06;;;;;;;17.90;13.40;;;11.10;64.10;;;14.20;49.25;101540.16;5014235;28;20197;-49
2022/03/29 01:36:33;;;;;;;17.93;13.33;;;11.10;64.00;;;14.19;49.21;101538.53;5013813;28;20191;-49
2022/03/29 01:39:01;;;;;;;16.33;13.03;;;11.10;64.00;;;14.21;49.08;101536.53;5014208;28;20195;-49
2022/03/29 01:41:30;;;;;;;17.17;13.80;;;11.10;64.00;;;14.20;49.06;101543.66;5014325;28;20222;-48
2022/03/29 01:43:59;;;;;;;16.13;12.67;;;11.10;64.00;;;14.21;48.90;101531.25;5005071;28;20196;-48
2022/03/29 01:46:27;;;;;;;18.17;13.33;;;11.10;64.00;;;14.23;49.05;101540.66;4993784;28;20198;-49
2022/03/29 01:48:54;;;;;;;16.67;13.80;;;11.10;63.90;;;14.24;49.16;101544.09;4994345;28;20639;-51
2022/03/29 01:51:21;;;;;;;17.47;14.47;;;11.10;63.90;;;14.23;48.97;101550.41;4994481;28;20195;-48
2022/03/29 01:53:54;;;;;;;16.80;14.23;;;11.10;63.80;;;14.17;49.20;101538.69;4994081;28;20199;-50
2022/03/29 01:56:22;;;;;;;17.73;13.80;;;11.10;64.10;;;14.17;49.13;101537.88;4993628;28;20200;-49
2022/03/29 01:58:50;;;;;;;22.13;13.77;;;11.00;64.10;;;14.15;49.38;101529.28;5000521;28;20200;-52
2022/03/29 02:01:18;;;;;;;17.80;13.83;;;11.00;64.20;;;14.10;49.47;101521.06;5012242;28;20214;-49
2022/03/29 02:03:45;;;;;;;18.30;14.40;;;11.00;64.20;;;14.05;49.28;101520.75;5013498;28;20198;-50
2022/03/29 02:06:13;;;;;;;18.70;14.47;;;11.00;64.30;;;14.03;49.51;101525.41;5013682;28;20564;-49
2022/03/29 02:08:41;;;;;;;20.80;13.80;;;11.00;64.30;;;14.03;49.56;101514.81;5013461;28;20555;-50
2022/03/29 02:11:08;;;;;;;17.47;14.67;;;10.90;64.40;;;14.02;49.65;101516.69;5013298;28;20219;-50
2022/03/29 02:13:36;;;;;;;20.43;15.20;;;10.90;64.40;;;14.01;49.42;101516.84;5013745;28;20283;-48
2022/03/29 02:16:05;;;;;;;19.17;15.57;;;10.90;64.30;;;14.00;49.60;101512.56;5013054;28;20661;-52
2022/03/29 02:18:32;;;;;;;21.70;15.80;;;10.90;64.40;;;13.99;49.58;101511.72;5011164;28;20223;-50
2022/03/29 02:21:00;;;;;;;24.50;16.27;;;10.90;64.40;;;14.00;49.59;101505.41;5013106;28;20218;-47
2022/03/29 02:23:27;;;;;;;19.87;15.93;;;10.90;64.50;;;14.01;49.47;101503.59;5013185;28;20187;-51
2022/03/29 02:25:54;;;;;;;20.03;14.90;;;10.90;64.40;;;14.00;49.47;101497.47;5013301;28;20653;-51
2022/03/29 02:28:22;;;;;;;25.33;17.33;;;10.90;64.40;;;14.02;49.38;101495.50;5012426;28;20661;-49
2022/03/29 02:30:50;;;;;;;22.10;14.60;;;10.90;64.20;;;14.01;49.23;101498.31;5013237;28;20270;-49
2022/03/29 02:33:18;;;;;;;19.90;15.87;;;10.90;64.20;;;14.00;49.29;101494.03;5008317;28;20192;-49
2022/03/29 02:35:46;;;;;;;20.93;14.80;;;10.90;64.00;;;13.97;49.19;101494.38;4993170;28;20192;-49
2022/03/29 02:38:13;;;;;;;21.87;14.97;;;10.80;63.80;;;13.97;49.29;101491.72;4992352;28;20212;-49
2022/03/29 02:40:41;;;;;;;21.97;14.47;;;10.80;63.80;;;13.99;49.09;101487.06;4993112;28;20246;-49
2022/03/29 02:43:09;;;;;;;21.00;15.63;;;10.80;63.80;;;13.99;49.08;101477.31;4993548;28;20192;-50
2022/03/29 02:45:37;;;;;;;20.67;14.77;;;10.80;63.80;;;14.01;49.17;101483.25;4993239;28;20195;-51
2022/03/29 02:48:05;;;;;;;21.83;15.37;;;10.90;63.80;;;14.00;49.09;101478.94;4992828;28;20701;-51
2022/03/29 02:50:34;;;;;;;21.47;15.43;;;10.80;63.60;;;14.00;49.03;101481.59;5002449;28;20187;-51
2022/03/29 02:53:03;;;;;;;24.43;16.37;;;10.80;63.60;;;14.01;48.82;101479.78;5012599;28;20207;-50
2022/03/29 02:55:35;;;;;;;20.30;14.23;;;10.80;63.70;;;14.02;48.92;101476.13;5012601;28;20241;-51
2022/03/29 02:58:03;;;;;;;18.73;15.00;;;10.80;63.80;;;14.02;48.82;101478.78;5012443;28;20268;-47
2022/03/29 03:00:31;;;;;;;22.23;15.23;;;10.80;63.70;;;14.02;48.85;101470.84;5012675;28;20215;-50
2022/03/29 03:02:59;;;;;;;23.47;16.80;;;10.80;63.90;;;14.03;49.16;101467.19;5012740;28;20689;-49
2022/03/29 03:05:27;;;;;;;23.77;15.80;;;10.80;63.80;;;14.05;49.04;101470.47;5012327;28;20258;-48
2022/03/29 03:07:56;;;;;;;20.17;14.83;;;10.80;63.80;;;14.05;48.87;101473.13;5010778;28;20218;-50
2022/03/29 03:10:25;;;;;;;20.07;15.90;;;10.80;64.00;;;14.07;48.91;101468.50;5012488;28;20198;-49
2022/03/29 03:12:53;;;;;;;19.67;14.67;;;10.80;63.90;;;14.06;48.79;101469.47;5012746;28;20296;-48
2022/03/29 03:15:22;;;;;;;21.40;15.63;;;10.80;63.70;;;14.06;48.67;101458.88;5012451;28;20225;-48
2022/03/29 03:17:51;;;;;;;23.87;16.10;;;10.80;63.60;;;14.06;48.73;101466.84;5012034;28;20314;-50
2022/03/29 03:20:20;;;;;;;21.03;16.23;;;10.80;63.70;;;14.06;48.74;101467.66;5012529;28;20276;-49
2022/03/29 03:22:49;;;;;;;25.43;17.20;;;10.80;63.50;;;14.08;48.55;101462.19;5008297;28;20283;-49
2022/03/29 03:25:17;;;;;;;23.00;14.83;;;10.80;63.50;;;14.09;48.55;101461.19;4992846;28;20198;-52
2022/03/29 03:27:44;;;;;;;20.60;15.97;;;10.80;63.70;;;14.11;48.90;101457.34;4992659;28;20215;-49
2022/03/29 03:30:15;;;;;;;24.73;16.03;;;10.80;63.70;;;14.12;48.67;101455.53;5010683;28;20200;-49
2022/03/29 03:32:43;;;;;;;22.80;16.50;;;10.90;63.70;;;14.14;48.70;101458.81;5012427;28;20209;-47
2022/03/29 03:35:17;;;;;;;20.80;15.67;;;10.90;63.70;;;14.14;48.56;101464.13;5012506;28;20265;-50
2022/03/29 03:37:44;;;;;;;18.40;14.40;;;10.90;63.60;;;14.13;48.50;101454.53;5011976;28;20652;-48
2022/03/29 03:40:12;;;;;;;21.27;15.17;;;10.90;63.60;;;14.13;48.59;101454.53;5003504;28;20212;-48
2022/03/29 03:42:41;;;;;;;18.40;14.83;;;10.90;63.60;;;14.12;48.71;101442.31;4992860;28;20260;-49
2022/03/29 03:45:10;;;;;;;22.23;15.60;;;10.90;63.70;;;14.13;48.53;101446.56;4992613;28;20192;-48
2022/03/29 03:47:37;;;;;;;20.93;16.17;;;10.80;63.50;;;14.12;48.66;101442.31;4992506;28;20219;-48
2022/03/29 03:50:08;;;;;;;20.10;16.10;;;10.90;63.80;;;14.13;48.70;101436.00;4994393;28;20242;-49
2022/03/29 03:52:35;;;;;;;19.83;16.40;;;10.90;63.80;;;14.13;48.68;101441.28;4997059;28;20627;-48
2022/03/29 03:55:04;;;;;;;16.77;14.70;;;10.90;63.70;;;14.14;48.65;101437.66;4998259;28;20188;-48
2022/03/29 03:57:32;;;;;;;21.70;16.97;;;10.90;63.50;;;14.13;48.54;101428.03;5012533;28;20302;-47
2022/03/29 04:00:01;;;;;;;22.80;16.27;;;10.90;63.10;;;14.12;48.51;101432.50;5015410;28;20195;-51
2022/03/29 04:02:29;;;;;;;18.17;15.53;;;10.90;62.90;;;14.13;48.28;101426.22;5015789;28;20209;-49
2022/03/29 04:04:56;;;;;;;24.50;17.40;;;10.90;62.90;;;14.13;48.26;101430.69;5015767;28;20195;-49
2022/03/29 04:07:23;;;;;;;23.23;16.60;;;10.90;62.70;;;14.13;48.15;101436.00;5015567;28;20234;-48
2022/03/29 04:09:51;;;;;;;21.50;14.70;;;10.90;62.60;;;14.13;48.23;101430.69;5015461;28;20202;-49
2022/03/29 04:12:19;;;;;;;21.70;16.80;;;10.90;62.90;;;14.13;48.07;101436.00;5014087;28;20665;-50
2022/03/29 04:14:46;;;;;;;21.70;16.07;;;10.90;62.80;;;14.12;48.05;101429.06;5015583;28;20271;-48
2022/03/29 04:17:15;;;;;;;17.73;13.87;;;10.90;62.70;;;14.09;48.26;101424.94;5015105;28;20250;-49
2022/03/29 04:19:42;;;;;;;23.10;15.37;;;10.90;62.70;;;14.09;48.50;101416.19;5015341;28;20545;-48
2022/03/29 04:22:09;;;;;;;18.90;15.53;;;10.90;62.70;;;14.08;48.32;101414.53;5015310;28;20207;-50
2022/03/29 04:24:37;;;;;;;21.80;16.03;;;10.90;62.60;;;14.08;48.18;101412.72;5015292;28;20246;-49
2022/03/29 04:27:05;;;;;;;23.13;16.90;;;10.90;62.60;;;14.08;48.12;101412.72;5014720;28;20218;-49
2022/03/29 04:29:32;;;;;;;19.40;15.13;;;10.90;62.70;;;14.08;48.29;101411.88;5013352;28;20196;-48
2022/03/29 04:31:59;;;;;;;19.80;16.63;;;10.90;62.90;;;14.09;48.24;101419.66;5014815;28;20206;-50
2022/03/29 04:34:28;;;;;;;27.13;16.17;;;10.90;62.80;;;14.08;48.16;101412.72;5014802;28;20191;-49
2022/03/29 04:36:58;;;;;;;22.73;16.13;;;10.90;62.80;;;14.07;48.27;101404.97;5014569;28;20215;-52
2022/03/29 04:39:26;;;;;;;25.17;17.23;;;10.90;62.70;;;14.08;48.26;101407.41;5013976;28;20596;-49
2022/03/29 04:41:54;;;;;;;22.83;18.10;;;10.90;62.60;;;14.10;48.05;101404.56;5014915;28;20570;-47
2022/03/29 04:44:34;;;;;;;24.53;15.40;;;10.90;62.60;;;14.10;48.11;101405.41;5015086;28;20193;-49
2022/03/29 04:47:03;;;;;;;26.83;17.90;;;10.90;62.60;;;14.11;48.23;101398.28;5012484;28;20221;-49
2022/03/29 04:49:31;;;;;;;23.80;16.37;;;10.90;62.60;;;14.12;48.02;101402.59;5014804;28;20197;-49
2022/03/29 04:51:59;;;;;;;21.13;15.90;;;10.90;62.50;;;14.12;48.20;101402.59;5014746;28;20547;-48
2022/03/29 04:54:27;;;;;;;24.30;17.80;;;10.90;62.60;;;14.13;47.98;101398.94;5014912;28;20294;-48
2022/03/29 04:56:54;;;;;;;24.70;16.57;;;10.90;62.40;;;14.13;48.11;101398.94;5013958;28;20299;-50
2022/03/29 04:59:22;;;;;;;25.90;17.00;;;10.90;62.60;;;14.11;48.08;101398.28;5014400;28;20202;-50
2022/03/29 05:01:49;;;;;;;25.83;17.43;;;10.90;62.40;;;14.10;47.98;101393.97;5013254;28;20221;-48
2022/03/29 05:04:16;;;;;;;22.53;16.77;;;11.00;62.40;;;14.12;48.16;101386.72;5013386;28;21055;-51
2022/03/29 05:06:45;;;;;;;21.80;15.70;;;11.00;62.50;;;14.14;48.14;101390.00;5013846;28;20207;-50
2022/03/29 05:09:12;;;;;;;24.20;15.40;;;11.00;62.30;;;14.18;48.24;101383.31;5013156;28;20202;-49
2022/03/29 05:11:39;;;;;;;24.97;14.97;;;11.00;62.40;;;14.23;48.01;101395.03;5013508;28;20197;-49
2022/03/29 05:14:07;;;;;;;22.13;15.50;;;11.10;62.40;;;14.27;47.89;101387.53;5014725;28;20242;-50
2022/03/29 05:16:34;;;;;;;24.90;16.80;;;11.10;61.90;;;14.29;47.88;101387.34;5013758;28;20207;-49
2022/03/29 05:19:01;;;;;;;20.67;16.27;;;11.10;61.70;;;14.28;47.83;101373.28;5014343;28;20199;-50
2022/03/29 05:21:30;;;;;;;20.97;15.80;;;11.10;61.70;;;14.30;47.67;101373.94;4996285;28;20227;-49
2022/03/29 05:23:58;;;;;;;19.57;14.77;;;11.10;61.70;;;14.30;47.60;101379.25;4994655;28;20187;-48
2022/03/29 05:26:26;;;;;;;20.37;16.13;;;11.10;61.60;;;14.31;47.70;101380.88;4994199;28;20200;-49
2022/03/29 05:28:53;;;;;;;27.97;17.03;;;11.20;61.70;;;14.35;47.59;101376.88;5001901;28;20237;-50
2022/03/29 05:31:20;;;;;;;20.20;15.73;;;11.10;61.40;;;14.36;47.69;101383.81;5014592;28;20187;-50
2022/03/29 05:33:48;;;;;;;22.67;16.03;;;11.20;61.60;;;14.37;47.53;101382.81;5014877;28;20610;-51
2022/03/29 05:36:15;;;;;;;20.20;15.50;;;11.20;62.40;;;14.37;47.58;101380.16;5010208;28;20208;-49
2022/03/29 05:38:48;;;;;;;24.13;16.63;;;11.20;61.60;;;14.37;47.60;101388.09;4994327;28;20192;-49
2022/03/29 05:41:19;;;;;;;19.27;13.47;;;11.20;61.60;;;14.37;47.57;101379.34;4995453;28;20215;-48
2022/03/29 05:43:48;;;;;;;24.27;16.70;;;11.20;61.90;;;14.40;47.56;101389.56;4995642;28;20565;-48
2022/03/29 05:49:03;;;;;;;22.00;15.77;;;11.20;61.60;;;14.38;47.44;101375.69;4994180;28;20204;-50
2022/03/29 05:51:31;;;;;;;24.60;16.73;;;11.20;61.30;;;14.38;47.12;101376.50;4994030;28;20188;-51
2022/03/29 05:54:01;;;;;;;24.63;17.03;;;11.20;61.30;;;14.36;47.49;101378.50;4994314;28;20200;-50
2022/03/29 05:56:30;;;;;;;24.23;17.13;;;11.20;61.30;;;14.36;47.38;101372.41;4993850;28;20254;-50
2022/03/29 05:58:57;;;;;;;22.17;16.83;;;11.20;61.30;;;14.38;47.46;101381.00;5002251;28;20218;-49
2022/03/29 06:01:25;;;;;;;21.93;14.20;;;11.20;61.30;;;14.39;47.35;101372.84;5013688;28;20226;-49
2022/03/29 06:03:52;;;;;;;24.60;16.00;;;11.20;61.50;;;14.40;47.46;101379.81;5014631;28;20195;-49
2022/03/29 06:06:20;;;;;;;24.43;16.40;;;11.20;61.60;;;14.45;47.62;101368.66;5013825;28;20199;-50
2022/03/29 06:08:48;;;;;;;20.47;16.03;;;11.30;61.80;;;14.51;47.58;101368.72;5013259;28;20191;-49
2022/03/29 06:11:15;;;;;;;19.77;15.00;;;11.30;61.70;;;14.57;47.27;101369.84;5027282;28;20205;-52
2022/03/29 06:13:44;;;;;;;26.93;16.07;;;11.40;61.40;;;14.65;47.09;101378.47;5013027;28;20245;-49
2022/03/29 06:16:11;;;;;;;29.00;16.80;;;11.50;61.20;;;14.69;47.06;101373.66;5011902;28;20499;-48
2022/03/29 06:18:38;;;;;;;23.73;16.37;;;11.50;60.80;;;14.72;46.97;101383.84;5013663;28;20219;-50
2022/03/29 06:21:06;;;;;;;23.97;15.13;;;11.50;60.50;;;14.74;46.75;101373.88;5014093;28;20285;-49
2022/03/29 06:23:34;;;;;;;26.17;19.37;;;11.60;60.70;;;14.74;46.87;101377.38;5013520;28;20191;-49
2022/03/29 06:26:01;;;;;;;19.77;15.07;;;11.60;60.80;;;14.76;46.77;101378.00;5013152;28;20550;-50
2022/03/29 06:28:29;;;;;;;23.93;17.17;;;11.60;60.60;;;14.78;46.65;101380.47;5012497;28;20265;-49
2022/03/29 06:30:58;;;;;;;19.23;15.13;;;11.60;60.20;;;14.76;46.72;101375.34;5013173;28;20321;-50
2022/03/29 06:33:26;;;;;;;21.27;15.33;;;11.60;60.40;;;14.79;46.81;101385.59;5013497;28;20590;-53
2022/03/29 06:35:53;;;;;;;22.43;15.40;;;11.60;60.50;;;14.80;46.54;101376.63;5013054;28;20202;-51
2022/03/29 06:38:22;;;;;;;22.23;16.83;;;11.60;60.30;;;14.82;46.56;101373.78;5013492;28;20241;-49
2022/03/29 06:40:50;;;;;;;21.20;15.97;;;11.60;60.30;;;14.84;46.83;101377.91;5013129;28;20305;-49
2022/03/29 06:43:18;;;;;;;22.77;14.70;;;11.60;60.60;;;14.86;46.56;101381.19;5006373;28;20299;-51
2022/03/29 06:45:45;;;;;;;22.23;15.90;;;11.70;60.50;;;14.89;46.68;101375.50;4993709;28;20204;-49
2022/03/29 06:48:14;;;;;;;22.07;15.63;;;11.70;60.40;;;14.93;46.46;101376.78;4993333;28;20235;-49
2022/03/29 06:50:41;;;;;;;21.67;14.53;;;11.70;60.50;;;14.99;46.50;101377.03;4993374;28;20270;-49
2022/03/29 06:53:08;;;;;;;23.30;15.63;;;11.70;60.30;;;14.98;46.36;101370.91;4993850;28;20654;-50
2022/03/29 06:55:36;;;;;;;20.60;15.27;;;11.70;60.10;;;15.01;46.44;101381.16;4993056;28;20196;-50
2022/03/29 06:58:04;;;;;;;21.77;15.47;;;11.80;60.20;;;15.05;46.27;101384.25;4993944;28;20232;-49
2022/03/29 07:00:31;;;;;;;20.37;16.07;;;11.80;60.30;;;15.06;46.27;101381.41;5000998;28;20195;-50
2022/03/29 07:02:59;;;;;;;21.93;13.90;;;11.80;60.00;;;15.08;46.24;101383.88;4993675;28;20215;-50
2022/03/29 07:05:28;;;;;;;20.40;13.77;;;11.80;60.00;;;15.09;46.08;101385.53;4993401;28;20258;-50
2022/03/29 07:07:56;;;;;;;21.40;15.20;;;11.90;59.60;;;15.09;46.08;101378.38;4992964;28;20223;-51
2022/03/29 07:13:09;;;;;;;23.30;16.17;;;11.90;59.20;;;15.10;45.71;101371.22;4993206;28;20188;-47
2022/03/29 07:15:36;;;;;;;21.33;16.43;;;11.90;58.90;;;15.10;45.50;101379.19;4993097;28;20262;-49
2022/03/29 07:18:05;;;;;;;19.93;15.00;;;11.90;58.80;;;15.10;45.43;101376.53;4992970;28;20270;-52
2022/03/29 07:20:34;;;;;;;21.63;13.87;;;11.90;59.00;;;15.12;45.35;101374.53;4993247;28;20212;-49
2022/03/29 07:23:02;;;;;;;27.57;14.67;;;11.90;58.30;;;15.12;44.57;101370.03;4992836;28;20278;-50
2022/03/29 07:25:32;;;;;;;19.27;13.50;;;11.90;57.20;;;15.13;44.60;101376.16;4995375;28;20188;-49
2022/03/29 07:28:00;;;;;;;21.37;13.90;;;11.90;57.60;;;15.18;44.47;101373.78;4995897;28;20258;-48
2022/03/29 07:30:30;;;;;;;19.20;13.30;;;11.90;57.70;;;15.25;44.44;101372.84;4997295;28;20246;-49
2022/03/29 07:32:59;;;;;;;19.80;13.47;;;12.00;57.70;;;15.29;44.10;101374.09;4999561;28;20284;-50
2022/03/29 07:35:29;;;;;;;21.97;14.80;;;12.00;57.70;;;15.37;44.37;101371.31;4996743;28;20196;-49
2022/03/29 07:37:58;;;;;;;16.47;12.70;;;12.10;57.80;;;15.43;44.02;101364.41;4996375;28;20220;-50
2022/03/29 07:40:29;;;;;;;18.20;13.30;;;12.10;57.00;;;15.47;43.69;101365.72;4999186;28;20237;-51
2022/03/29 07:42:58;;;;;;;21.37;11.93;;;12.20;56.90;;;15.51;43.70;101367.81;4999154;28;20703;-49
2022/03/29 07:45:27;;;;;;;19.27;12.57;;;12.30;57.00;;;15.59;43.79;101361.56;4996894;28;20192;-50
2022/03/29 07:47:57;;;;;;;17.03;10.63;;;12.30;56.70;;;15.62;43.14;101361.16;4996621;28;20211;-49
2022/03/29 07:50:47;;;;;;;14.67;10.87;;;12.30;55.90;;;15.58;42.83;101366.03;5010856;28;20215;-48
2022/03/29 07:53:16;;;;;;;17.63;10.60;;;12.30;56.00;;;15.56;43.04;101369.88;5016345;28;20195;-49
2022/03/29 07:55:45;;;;;;;16.20;11.40;;;12.30;56.60;;;15.53;42.72;101372.91;5014718;28;20195;-49
2022/03/29 07:58:19;;;;;;;21.67;11.50;;;12.30;55.80;;;15.49;42.84;101367.19;5015344;28;20223;-49
2022/03/29 08:00:50;;;;;;;20.23;11.17;;;12.30;56.30;;;15.47;43.11;101371.03;5016566;28;20191;-51
2022/03/29 08:03:21;;;;;;;18.03;11.83;;;12.30;55.90;;;15.51;43.04;101369.63;5016245;28;20215;-49
2022/03/29 08:05:50;;;;;;;12.57;9.93;;;12.30;56.10;;;15.55;43.17;101360.28;5016404;28;20195;-49
2022/03/29 08:08:20;;;;;;;13.20;10.20;;;12.30;56.10;;;15.59;43.02;101366.84;5016450;28;20215;-49
2022/03/29 08:10:49;;;;;;;15.83;9.47;;;12.30;56.10;;;15.62;42.66;101355.84;5015942;28;20195;-50
2022/03/29 08:13:18;;;;;;;17.07;10.77;;;12.40;56.00;;;15.64;42.90;101359.16;5016164;28;20202;-48
2022/03/29 08:15:49;;;;;;;15.43;10.60;;;12.40;55.90;;;15.67;42.62;101365.88;5016005;28;20275;-52
2022/03/29 08:18:17;;;;;;;17.97;11.87;;;12.40;55.70;;;15.72;42.86;101361.63;5016505;28;20223;-48
2022/03/29 08:20:45;;;;;;;21.80;9.50;;;12.40;55.50;;;15.77;42.68;101366.38;5016100;28;20198;-48
2022/03/29 08:23:12;;;;;;;15.13;7.97;;;12.40;56.00;;;15.78;42.04;101352.09;5014677;28;20222;-48
2022/03/29 08:25:43;;;;;;;17.50;7.57;;;12.50;55.30;;;15.78;42.29;101363.53;5016094;28;20197;-50
2022/03/29 08:28:12;;;;;;;14.43;6.47;;;12.40;55.10;;;15.78;42.35;101360.88;5015545;28;20219;-51
2022/03/29 08:30:41;;;;;;;15.17;7.33;;;12.50;55.30;;;15.80;42.03;101353.53;5015421;28;20207;-49
2022/03/29 08:33:09;;;;;;;14.50;8.03;;;12.50;55.00;;;15.82;42.00;101356.81;5015951;28;20266;-50
2022/03/29 08:35:37;;;;;;;20.43;8.27;;;12.50;54.80;;;15.95;41.78;101350.78;5015274;28;20533;-48
2022/03/29 08:38:07;;;;;;;16.27;9.33;;;12.50;54.60;;;16.69;41.41;101339.31;5014222;28;20227;-49
2022/03/29 08:40:57;;;;;;;15.43;8.73;;;12.70;54.90;;;17.75;39.29;101345.63;5014119;28;20227;-48
2022/03/29 08:43:29;;;;;;;13.97;7.73;;;13.20;53.80;;;18.39;37.62;101338.53;5015459;28;20221;-50
2022/03/29 08:45:58;;;;;;;14.07;8.67;;;13.60;52.30;;;18.82;37.20;101334.25;5015714;28;20195;-48
2022/03/29 08:48:30;;;;;;;13.93;7.57;;;14.10;51.50;;;19.00;35.82;101340.69;5015060;28;20215;-48
2022/03/29 08:51:00;;;;;;;18.93;8.50;;;14.50;49.50;;;19.05;35.37;101333.69;5015413;28;20275;-52
2022/03/29 08:53:49;;;;;;;12.17;7.30;;;14.70;48.10;;;19.09;35.39;101334.09;5015332;28;20553;-51
2022/03/29 08:56:19;;;;;;;13.40;7.40;;;14.90;49.10;;;19.01;35.11;101337.00;5005876;28;21385;-52
2022/03/29 08:58:47;;;;;;;14.70;8.30;;;15.00;47.40;;;18.83;35.22;101335.06;5005648;28;20596;-50
2022/03/29 09:01:22;;;;;;;12.23;8.70;;;15.00;47.00;;;18.78;35.20;101333.03;5002058;28;20210;-50
2022/03/29 09:04:08;;;;;;;15.40;8.83;;;15.00;46.80;;;18.69;35.34;101334.31;5001735;28;20203;-50
2022/03/29 09:06:58;;;;;;;13.93;7.27;;;15.00;46.90;;;18.51;35.28;101326.19;5000733;28;20575;-51
2022/03/29 09:09:28;;;;;;;15.63;8.53;;;14.90;46.50;;;18.38;35.71;101328.88;4999184;28;20211;-52
2022/03/29 09:12:11;;;;;;;15.93;7.37;;;14.90;47.10;;;18.16;35.62;101323.00;4999122;28;20202;-53
2022/03/29 09:14:54;;;;;;;16.30;6.90;;;14.70;46.60;;;17.95;36.18;101335.75;5001429;28;20214;-57
2022/03/29 09:17:28;;;;;;;16.17;9.40;;;14.60;47.10;;;17.81;36.23;101328.81;4998651;28;20297;-52
2022/03/29 09:19:55;;;;;;;13.77;7.00;;;14.50;47.60;;;17.66;36.71;101325.56;5001431;28;20233;-50
2022/03/29 09:22:52;;;;;;;12.27;5.87;;;14.30;47.90;;;17.53;37.06;101319.22;4999870;28;20218;-50
2022/03/29 09:25:22;;;;;;;15.43;7.13;;;14.20;48.30;;;17.65;37.15;101321.25;4964636;28;20241;-50
2022/03/29 09:27:58;;;;;;;14.10;7.33;;;14.20;48.40;;;17.71;36.49;101317.78;5001341;28;20756;-52
2022/03/29 09:30:28;;;;;;;14.70;6.87;;;14.10;48.20;;;17.80;36.49;101328.03;5002370;28;20214;-48
2022/03/29 09:33:04;;;;;;;9.87;6.27;;;14.20;48.50;;;17.88;36.12;101325.13;5000523;28;20210;-50
2022/03/29 09:35:37;;;;;;;12.17;6.00;;;14.20;47.90;;;17.97;35.86;101323.06;5002325;28;20285;-50
2022/03/29 09:38:23;;;;;;;14.53;6.17;;;14.20;47.30;;;17.99;35.34;101324.50;5002591;28;20293;-48
2022/03/29 09:40:55;;;;;;;11.10;5.47;;;14.20;47.00;;;18.11;35.71;101320.16;4999320;28;20195;-52
2022/03/29 09:43:26;;;;;;;14.30;5.37;;;14.30;47.30;;;18.33;35.41;101315.34;4998569;28;20227;-50
2022/03/29 09:45:57;;;;;;;9.77;5.40;;;14.50;47.00;;;18.68;35.07;101316.69;5001055;28;20236;-51
2022/03/29 09:48:28;;;;;;;14.90;5.63;;;14.60;47.30;;;19.19;34.86;101318.41;5001961;28;20325;-49
2022/03/29 09:51:14;;;;;;;9.77;4.57;;;14.90;47.40;;;19.47;34.12;101316.97;4997050;28;20203;-49
2022/03/29 09:53:46;;;;;;;10.17;5.27;;;15.10;46.70;;;19.55;33.02;101313.22;4998508;28;20286;-51
2022/03/29 09:56:20;;;;;;;15.77;7.87;;;15.30;44.90;;;19.53;32.42;101317.97;5000153;28;20276;-54
2022/03/29 09:59:14;;;;;;;23.43;15.37;;;15.40;43.20;;;19.93;32.29;101305.84;4995682;28;20211;-51
2022/03/29 10:01:51;;;;;;;17.07;6.67;;;15.60;43.90;;;21.31;31.09;101315.59;5001834;28;20247;-53
2022/03/29 10:04:21;;;;;;;10.77;6.00;;;16.00;43.00;;;21.87;29.20;101300.84;5002085;28;20211;-52
2022/03/29 10:06:50;;;;;;;10.67;6.10;;;16.30;41.20;;;22.00;29.05;101303.25;5001679;28;20293;-51
2022/03/29 10:09:26;;;;;;;12.67;7.63;;;16.70;40.80;;;22.38;28.71;101300.03;4998830;28;20210;-51
2022/03/29 10:11:57;;;;;;;12.20;6.37;;;17.10;40.60;;;22.31;28.03;101297.50;5004295;28;20191;-51
2022/03/29 10:14:27;;;;;;;13.63;6.03;;;17.30;39.10;;;22.04;28.23;101301.72;4997076;28;20237;-49
2022/03/29 10:16:56;;;;;;;20.77;5.93;;;17.40;38.20;;;21.93;28.67;101289.19;4999807;28;20222;-51
2022/03/29 10:19:25;;;;;;;15.37;5.87;;;17.50;37.90;;;22.67;27.35;101299.03;5001748;28;20207;-49